createdAt,value
2018-09-11T00:00:46.990Z,88.67
2018-09-11T00:03:17.038Z,88.91
2018-09-11T00:05:46.970Z,89.19
2018-09-11T00:08:17.010Z,89.34
2018-09-11T00:10:47.054Z,89.24
2018-09-11T00:13:17.008Z,88.87
2018-09-11T00:15:46.094Z,88.87
2018-09-11T00:18:15.217Z,89.01
2018-09-11T00:20:44.382Z,87.82
2018-09-11T00:23:13.517Z,87.82
2018-09-11T00:25:42.590Z,87.13
2018-09-11T00:28:11.642Z,87.68
2018-09-11T00:30:40.802Z,87.79
2018-09-11T00:33:11.266Z,87.88
2018-09-11T00:35:40.318Z,87.06
2018-09-11T00:38:09.435Z,86.92
2018-09-11T00:40:38.555Z,87.07
2018-09-11T00:43:07.687Z,87.32
2018-09-11T00:45:36.756Z,87.49
2018-09-11T00:48:05.844Z,87.73
2018-09-11T00:50:34.953Z,87.44
2018-09-11T00:53:04.080Z,87.50
2018-09-11T00:55:33.151Z,87.93
2018-09-11T00:58:02.279Z,87.53
2018-09-11T01:00:31.384Z,87.62
2018-09-11T01:03:00.503Z,87.26
2018-09-11T01:05:29.686Z,87.06
2018-09-11T01:07:58.835Z,87.66
2018-09-11T01:10:27.941Z,87.79
2018-09-11T01:12:57.022Z,87.81
2018-09-11T01:15:26.108Z,88.61
2018-09-11T01:17:55.218Z,88.60
2018-09-11T01:20:24.330Z,88.35
2018-09-11T01:22:53.453Z,88.42
2018-09-11T01:25:22.578Z,87.67
2018-09-11T01:27:51.702Z,87.92
2018-09-11T01:30:22.174Z,87.51
2018-09-11T01:32:52.300Z,87.28
2018-09-11T01:35:22.190Z,87.89
2018-09-11T01:37:51.312Z,87.85
2018-09-11T01:40:20.467Z,88.31
2018-09-11T01:42:49.567Z,88.15
2018-09-11T01:45:18.717Z,88.08
2018-09-11T01:47:48.534Z,88.25
2018-09-11T01:50:18.467Z,87.23
2018-09-11T01:52:48.621Z,87.87
2018-09-11T01:55:18.587Z,87.75
2018-09-11T01:57:48.539Z,88.24
2018-09-11T02:00:20.747Z,88.48
2018-09-11T02:02:49.891Z,87.71
2018-09-11T02:05:19.019Z,87.74
2018-09-11T02:07:49.061Z,87.75
2018-09-11T02:10:18.587Z,87.88
2018-09-11T02:12:48.817Z,88.33
2018-09-11T02:15:18.925Z,88.59
2018-09-11T02:17:48.738Z,88.38
2018-09-11T02:20:18.911Z,88.44
2018-09-11T02:22:48.811Z,87.81
2018-09-11T02:25:18.713Z,87.69
2018-09-11T02:27:48.831Z,87.44
2018-09-11T02:30:19.076Z,87.65
2018-09-11T02:32:48.885Z,87.81
2018-09-11T02:35:18.769Z,88.39
2018-09-11T02:37:48.982Z,88.19
2018-09-11T02:40:19.156Z,87.91
2018-09-11T02:42:48.950Z,88.17
2018-09-11T02:45:22.925Z,88.08
2018-09-11T02:47:53.257Z,88.24
2018-09-11T02:50:22.435Z,87.18
2018-09-11T02:52:51.567Z,88.02
2018-09-11T02:55:20.625Z,87.55
2018-09-11T02:57:49.705Z,88.35
2018-09-11T03:00:19.168Z,88.24
2018-09-11T03:02:49.078Z,87.09
2018-09-11T03:05:19.189Z,88.03
2018-09-11T03:07:49.104Z,88.66
2018-09-11T03:10:19.245Z,88.52
2018-09-11T03:12:49.143Z,88.75
2018-09-11T03:15:19.257Z,88.14
2018-09-11T03:17:49.181Z,88.76
2018-09-11T03:20:19.298Z,88.70
2018-09-11T03:22:49.242Z,88.89
2018-09-11T03:25:19.225Z,88.48
2018-09-11T03:27:48.314Z,88.29
2018-09-11T03:30:17.418Z,88.49
2018-09-11T03:32:46.437Z,88.22
2018-09-11T03:35:15.543Z,89.00
2018-09-11T03:37:44.605Z,88.70
2018-09-11T03:40:13.677Z,89.35
2018-09-11T03:42:42.839Z,89.58
2018-09-11T03:45:12.141Z,89.59
2018-09-11T03:47:41.357Z,89.18
2018-09-11T03:50:10.415Z,89.58
2018-09-11T03:52:39.609Z,89.60
2018-09-11T03:55:08.777Z,90.36
2018-09-11T03:57:37.819Z,90.49
2018-09-11T04:00:06.971Z,90.22
2018-09-11T04:02:36.071Z,90.32
2018-09-11T04:05:05.169Z,90.56
2018-09-11T04:07:34.298Z,90.03
2018-09-11T04:10:03.402Z,89.96
2018-09-11T04:12:32.557Z,90.54
2018-09-11T04:15:01.740Z,90.54
2018-09-11T04:17:37.343Z,90.66
2018-09-11T04:20:06.539Z,90.68
2018-09-11T04:22:35.697Z,90.41
2018-09-11T04:25:04.790Z,90.98
2018-09-11T04:27:34.186Z,90.68
2018-09-11T04:30:03.331Z,90.81
2018-09-11T04:32:32.387Z,90.66
2018-09-11T04:35:01.434Z,90.89
2018-09-11T04:37:30.533Z,91.40
2018-09-11T04:39:59.734Z,91.16
2018-09-11T04:42:28.778Z,91.72
2018-09-11T04:44:57.889Z,91.82
2018-09-11T04:47:27.008Z,91.11
2018-09-11T04:49:56.136Z,90.58
2018-09-11T04:52:25.193Z,90.67
2018-09-11T04:54:54.259Z,90.96
2018-09-11T04:57:23.302Z,91.85
2018-09-11T04:59:52.447Z,92.93
2018-09-11T05:02:21.787Z,93.73
2018-09-11T05:04:50.842Z,94.42
2018-09-11T05:07:20.327Z,94.66
2018-09-11T05:09:50.221Z,94.50
2018-09-11T05:12:20.186Z,95.31
2018-09-11T05:14:49.245Z,95.06
2018-09-11T05:17:18.316Z,95.36
2018-09-11T05:19:47.378Z,95.58
2018-09-11T05:22:16.438Z,95.09
2018-09-11T05:24:45.537Z,95.46
2018-09-11T05:27:14.767Z,95.29
2018-09-11T05:29:43.773Z,94.89
2018-09-11T05:32:13.334Z,95.25
2018-09-11T05:34:42.728Z,95.18
2018-09-11T05:37:11.823Z,94.98
2018-09-11T05:39:40.998Z,94.66
2018-09-11T05:42:10.138Z,94.00
2018-09-11T05:44:39.209Z,94.48
2018-09-11T05:47:08.290Z,94.38
2018-09-11T05:49:38.104Z,93.48
2018-09-11T05:52:07.570Z,93.32
2018-09-11T05:54:36.664Z,93.32
2018-09-11T05:57:06.462Z,93.68
2018-09-11T05:59:35.946Z,93.00
2018-09-11T06:02:05.047Z,92.86
2018-09-11T06:04:34.076Z,92.37
2018-09-11T06:07:03.096Z,92.49
2018-09-11T06:09:32.195Z,91.78
2018-09-11T06:12:01.274Z,92.09
2018-09-11T06:14:30.330Z,91.34
2018-09-11T06:16:59.467Z,91.31
2018-09-11T06:19:28.571Z,91.27
2018-09-11T06:21:57.628Z,91.17
2018-09-11T06:24:26.725Z,90.90
2018-09-11T06:26:55.869Z,90.77
2018-09-11T06:29:24.948Z,91.14
2018-09-11T06:31:54.093Z,90.79
2018-09-11T06:34:23.336Z,90.66
2018-09-11T06:36:52.427Z,90.33
2018-09-11T06:39:21.518Z,90.65
2018-09-11T06:41:51.301Z,89.96
2018-09-11T06:44:21.237Z,89.63
2018-09-11T06:46:51.365Z,89.86
2018-09-11T06:49:21.349Z,89.32
2018-09-11T06:51:51.254Z,89.72
2018-09-11T06:54:21.291Z,88.67
2018-09-11T07:17:38.608Z,85.46
2018-09-11T07:20:09.967Z,84.90
2018-09-11T07:22:39.054Z,84.78
2018-09-11T07:25:08.689Z,84.87
2018-09-11T07:27:37.888Z,83.58
2018-09-11T07:30:07.490Z,83.70
2018-09-11T07:32:41.110Z,84.22
2018-09-11T07:35:10.700Z,83.72
2018-09-11T07:37:40.133Z,82.77
2018-09-11T07:43:13.751Z,81.87
2018-09-11T07:45:42.920Z,82.26
2018-09-11T07:48:12.490Z,81.43
2018-09-11T07:50:41.812Z,80.59
2018-09-11T07:53:11.501Z,78.82
2018-09-11T07:55:40.786Z,78.50
2018-09-11T07:58:11.146Z,77.66
2018-09-11T08:00:41.964Z,78.13
2018-09-11T08:03:11.876Z,78.43
2018-09-11T08:05:41.084Z,78.31
2018-09-11T08:08:10.653Z,78.43
2018-09-11T08:10:40.842Z,77.42
2018-09-11T08:13:11.217Z,77.39
2018-09-11T08:15:40.487Z,76.00
2018-09-11T08:18:12.197Z,76.18
2018-09-11T08:20:41.345Z,75.66
2018-09-11T08:23:10.861Z,74.51
2018-09-11T08:25:40.860Z,73.02
2018-09-11T08:28:10.409Z,73.54
2018-09-11T08:30:39.717Z,72.17
2018-09-11T08:33:09.326Z,71.68
2018-09-11T08:35:40.498Z,72.61
2018-09-11T08:38:10.203Z,72.29
2018-09-11T08:40:39.409Z,71.71
2018-09-11T08:56:13.321Z,70.69
2018-09-11T08:58:42.695Z,66.56
2018-09-11T09:01:11.718Z,68.25
2018-09-11T09:03:40.957Z,67.77
2018-09-11T09:06:10.557Z,67.64
2018-09-11T09:08:39.808Z,67.78
2018-09-11T09:11:09.656Z,68.16
2018-09-11T09:13:38.923Z,67.03
2018-09-11T09:16:08.148Z,67.41
2018-09-11T09:18:37.284Z,67.75
2018-09-11T09:21:06.852Z,66.97
2018-09-11T09:23:36.086Z,66.90
2018-09-11T09:26:05.604Z,65.71
2018-09-11T09:28:34.962Z,66.50
2018-09-11T09:31:04.554Z,64.96
2018-09-11T09:33:33.765Z,64.73
2018-09-11T09:36:03.307Z,64.04
2018-09-11T09:38:32.496Z,64.51
2018-09-11T09:41:02.041Z,64.36
2018-09-11T09:43:31.216Z,64.89
2018-09-11T09:46:00.721Z,62.33
2018-09-11T09:48:29.928Z,64.48
2018-09-11T09:50:59.204Z,63.00
2018-09-11T09:53:28.423Z,61.63
2018-09-11T09:55:57.605Z,61.85
2018-09-11T09:58:26.829Z,62.16
2018-09-11T10:00:59.052Z,62.00
2018-09-11T10:03:28.217Z,63.11
2018-09-11T10:05:57.459Z,64.73
2018-09-11T10:08:26.636Z,62.67
2018-09-11T10:10:57.685Z,62.83
2018-09-11T10:13:26.852Z,63.08
2018-09-11T10:15:56.029Z,63.29
2018-09-11T10:18:25.198Z,63.88
2018-09-11T10:20:54.363Z,63.88
2018-09-11T10:23:23.583Z,63.06
2018-09-11T10:25:53.642Z,63.59
2018-09-11T10:43:55.281Z,61.04
2018-09-11T10:46:25.116Z,61.03
2018-09-11T10:48:54.768Z,60.74
2018-09-11T10:51:24.334Z,61.94
2018-09-11T10:53:53.805Z,60.42
2018-09-11T11:54:07.144Z,53.97
2018-09-11T11:56:36.616Z,53.47
2018-09-11T11:59:06.501Z,52.93
2018-09-11T12:01:36.286Z,53.03
2018-09-11T12:04:06.157Z,54.21
2018-09-11T12:06:35.592Z,54.93
2018-09-11T12:09:08.348Z,53.82
2018-09-11T12:11:37.676Z,53.27
2018-09-11T12:14:07.364Z,53.54
2018-09-11T12:19:21.615Z,51.79
2018-09-11T12:21:50.890Z,52.37
2018-09-11T12:24:22.914Z,53.61
2018-09-11T12:26:52.463Z,55.24
2018-09-11T12:29:22.151Z,53.41
2018-09-11T12:31:51.301Z,54.73
2018-09-11T12:34:21.084Z,52.57
2018-09-11T12:36:52.458Z,52.07
2018-09-11T12:39:22.183Z,52.02
2018-09-11T12:41:51.436Z,53.42
2018-09-11T12:44:20.982Z,52.17
2018-09-11T12:46:50.235Z,52.26
2018-09-11T12:49:19.827Z,51.86
2018-09-11T12:51:51.540Z,52.46
2018-09-11T12:54:22.839Z,51.13
2018-09-11T12:56:53.813Z,50.88
2018-09-11T12:59:23.035Z,51.94
2018-09-11T13:01:52.243Z,52.17
2018-09-11T13:04:23.510Z,52.60
2018-09-11T13:06:52.662Z,52.20
2018-09-11T13:09:22.174Z,50.61
2018-09-11T13:11:52.213Z,50.56
2018-09-11T13:14:21.748Z,51.94
2018-09-11T13:16:50.947Z,50.58
2018-09-11T13:19:21.969Z,50.30
2018-09-11T13:21:51.162Z,50.98
2018-09-11T13:24:20.368Z,52.24
2018-09-11T13:26:49.627Z,50.69
2018-09-11T13:29:19.257Z,49.75
2018-09-11T13:31:48.437Z,52.79
2018-09-11T13:34:20.600Z,53.43
2018-09-11T13:36:51.538Z,52.45
2018-09-11T13:39:21.077Z,53.11
2018-09-11T13:41:50.281Z,49.96
2018-09-11T13:44:19.433Z,51.36
2018-09-11T13:46:48.721Z,52.12
2018-09-11T13:49:20.127Z,51.43
2018-09-11T13:51:51.274Z,50.15
2018-09-11T13:54:20.866Z,51.13
2018-09-11T13:56:50.036Z,50.31
2018-09-11T13:59:19.744Z,50.18
2018-09-11T14:01:49.042Z,49.90
2018-09-11T14:04:18.634Z,46.30
2018-09-11T14:06:47.847Z,46.48
2018-09-11T14:09:17.369Z,49.48
2018-09-11T14:11:46.523Z,47.80
2018-09-11T14:14:15.996Z,48.76
2018-09-11T14:16:45.207Z,44.36
2018-09-11T14:19:15.118Z,49.02
2018-09-11T14:21:44.517Z,50.22
2018-09-11T14:24:14.875Z,48.60
2018-09-11T14:26:44.614Z,45.91
2018-09-11T14:29:14.274Z,47.68
2018-09-11T14:31:43.427Z,48.48
2018-09-11T14:34:12.957Z,46.35
2018-09-11T14:36:42.161Z,43.58
2018-09-11T14:39:12.304Z,44.44
2018-09-11T14:41:41.504Z,44.85
2018-09-11T14:44:11.024Z,42.77
2018-09-11T14:46:40.220Z,41.77
2018-09-11T14:49:09.714Z,43.19
2018-09-11T14:51:38.907Z,39.79
2018-09-11T14:54:08.549Z,41.35
2018-09-11T14:56:37.776Z,43.39
2018-09-11T14:59:09.917Z,39.59
2018-09-11T15:01:39.087Z,39.54
2018-09-11T15:04:11.263Z,40.62
2018-09-11T15:06:42.667Z,40.95
2018-09-11T15:09:12.413Z,40.76
2018-09-11T15:11:41.591Z,39.86
2018-09-11T15:14:11.170Z,37.68
2018-09-11T15:16:40.400Z,39.29
2018-09-11T15:19:09.953Z,39.06
2018-09-11T15:21:39.149Z,39.58
2018-09-11T15:24:09.162Z,38.38
2018-09-11T15:26:38.320Z,38.63
2018-09-11T15:29:08.284Z,39.34
2018-09-11T15:31:40.278Z,38.50
2018-09-11T15:34:09.878Z,36.89
2018-09-11T15:36:39.048Z,37.86
2018-09-11T15:39:08.643Z,37.86
2018-09-11T15:41:37.873Z,41.16
2018-09-11T15:44:07.525Z,41.14
2018-09-11T15:46:36.629Z,39.80
2018-09-11T15:49:06.222Z,40.84
2018-09-11T15:51:35.426Z,42.33
2018-09-11T15:54:05.022Z,41.39
2018-09-11T15:56:35.157Z,42.69
2018-09-11T15:59:04.770Z,43.29
2018-09-11T16:01:34.019Z,43.01
2018-09-11T16:04:05.358Z,42.87
2018-09-11T16:06:34.582Z,44.70
2018-09-11T16:09:06.876Z,44.54
2018-09-11T16:11:37.012Z,43.91
2018-09-11T16:14:08.423Z,44.10
2018-09-11T16:16:37.618Z,44.44
2018-09-11T16:19:07.202Z,44.55
2018-09-11T16:21:36.372Z,44.62
2018-09-11T16:24:06.053Z,45.69
2018-09-11T16:26:35.229Z,44.93
2018-09-11T16:29:05.105Z,45.70
2018-09-11T16:31:34.317Z,45.15
2018-09-11T16:34:03.907Z,45.96
2018-09-11T16:36:33.078Z,46.31
2018-09-11T16:39:02.428Z,46.62
2018-09-11T16:41:32.030Z,46.42
2018-09-11T16:44:01.241Z,46.15
2018-09-11T16:46:30.470Z,46.92
2018-09-11T16:48:59.701Z,46.38
2018-09-11T16:51:28.957Z,47.31
2018-09-11T16:53:58.140Z,47.71
2018-09-11T16:56:29.130Z,48.57
2018-09-11T16:58:58.289Z,48.54
2018-09-11T17:01:28.415Z,47.99
2018-09-11T17:03:57.990Z,49.13
2018-09-11T17:06:27.776Z,50.10
2018-09-11T17:08:56.998Z,51.15
2018-09-11T17:11:26.139Z,51.33
2018-09-11T17:13:55.360Z,52.29
2018-09-11T17:16:24.561Z,51.83
2018-09-11T17:18:54.776Z,53.18
2018-09-11T17:21:26.132Z,53.34
2018-09-11T17:23:55.296Z,54.25
2018-09-11T17:26:24.894Z,55.66
2018-09-11T17:28:54.161Z,55.49
2018-09-11T17:31:23.905Z,56.20
2018-09-11T17:33:53.910Z,55.86
2018-09-11T17:36:25.229Z,56.44
2018-09-11T17:38:54.459Z,56.81
2018-09-11T17:41:24.862Z,58.21
2018-09-11T17:43:54.157Z,58.67
2018-09-11T17:46:23.516Z,59.71
2018-09-11T17:48:53.654Z,59.93
2018-09-11T17:51:22.850Z,61.04
2018-09-11T17:53:52.113Z,61.33
2018-09-11T17:56:22.478Z,62.43
2018-09-11T17:58:51.720Z,62.73
2018-09-11T18:01:21.497Z,62.81
2018-09-11T18:03:50.806Z,63.09
2018-09-11T18:06:20.405Z,63.51
2018-09-11T18:08:51.439Z,63.90
2018-09-11T18:11:22.649Z,64.48
2018-09-11T18:13:51.849Z,65.60
2018-09-11T18:16:21.139Z,66.74
2018-09-11T18:18:50.396Z,66.50
2018-09-11T18:21:20.112Z,67.21
2018-09-11T18:23:49.352Z,67.96
2018-09-11T18:26:19.066Z,68.37
2018-09-11T18:28:48.313Z,68.00
2018-09-11T18:31:18.000Z,67.79
2018-09-11T18:33:47.294Z,68.25
2018-09-11T18:36:17.159Z,68.85
2018-09-11T18:38:46.522Z,69.16
2018-09-11T18:41:16.247Z,69.18
2018-09-11T18:43:45.559Z,69.14
2018-09-11T18:46:15.351Z,69.38
2018-09-11T18:48:46.354Z,69.96
2018-09-11T18:51:16.043Z,70.46
2018-09-11T18:53:45.408Z,70.92
2018-09-11T18:56:16.181Z,71.41
2018-09-11T18:58:45.618Z,71.85
2018-09-11T19:01:15.273Z,71.92
2018-09-11T19:03:44.815Z,72.75
2018-09-11T19:06:14.427Z,72.17
2018-09-11T19:08:44.013Z,73.23
2018-09-11T19:11:15.657Z,73.73
2018-09-11T19:13:46.029Z,73.21
2018-09-11T19:16:15.931Z,73.58
2018-09-11T19:18:45.548Z,73.94
2018-09-11T19:21:16.620Z,74.31
2018-09-11T19:23:47.029Z,74.49
2018-09-11T19:26:17.876Z,75.78
2018-09-11T19:28:47.994Z,75.79
2018-09-11T19:31:17.846Z,76.70
2018-09-11T19:33:47.407Z,76.76
2018-09-11T19:36:17.282Z,76.87
2018-09-11T19:38:49.531Z,76.66
2018-09-11T19:41:19.488Z,77.27
2018-09-11T19:43:49.401Z,77.37
2018-09-11T19:46:19.308Z,77.37
2018-09-11T19:48:52.920Z,77.62
2018-09-11T19:51:22.360Z,78.06
2018-09-11T19:53:56.705Z,77.73
2018-09-11T19:56:27.191Z,78.21
2018-09-11T19:58:56.708Z,78.85
2018-09-11T20:01:26.310Z,78.38
2018-09-11T20:03:55.800Z,78.91
2018-09-11T20:06:25.616Z,79.46
2018-09-11T20:08:58.283Z,79.42
2018-09-11T20:11:28.588Z,79.43
2018-09-11T20:13:58.920Z,80.55
2018-09-11T20:16:28.259Z,80.51
2018-09-11T20:18:57.542Z,80.70
2018-09-11T20:21:27.228Z,80.70
2018-09-11T20:23:56.559Z,80.21
2018-09-11T20:26:25.858Z,80.01
2018-09-11T20:28:55.314Z,81.07
2018-09-11T20:31:24.731Z,81.22
2018-09-11T20:33:53.929Z,81.42
2018-09-11T20:36:23.621Z,81.96
2018-09-11T20:38:52.883Z,81.86
2018-09-11T20:41:22.405Z,82.07
2018-09-11T20:43:51.658Z,81.76
2018-09-11T20:46:21.251Z,82.54
2018-09-11T20:48:50.450Z,82.68
2018-09-11T20:51:19.975Z,83.06
2018-09-11T20:53:51.239Z,82.61
2018-09-11T20:56:21.465Z,83.16
2018-09-11T20:58:52.460Z,82.78
2018-09-11T21:01:24.977Z,82.34
2018-09-11T21:03:54.278Z,83.06
2018-09-11T21:06:23.948Z,82.62
2018-09-11T21:08:53.313Z,83.28
2018-09-11T21:11:22.673Z,82.89
2018-09-11T21:13:54.476Z,82.51
2018-09-11T21:16:23.646Z,82.59
2018-09-11T21:18:52.845Z,82.95
2018-09-11T21:21:23.254Z,82.17
2018-09-11T21:23:52.678Z,82.66
2018-09-11T21:26:22.423Z,82.26
2018-09-11T21:28:51.903Z,82.49
2018-09-11T21:31:21.512Z,83.25
2018-09-11T21:33:52.527Z,83.03
2018-09-11T21:36:22.291Z,83.39
2018-09-11T21:38:51.450Z,83.41
2018-09-11T21:41:20.974Z,83.83
2018-09-11T21:43:50.164Z,84.15
2018-09-11T21:46:19.924Z,84.39
2018-09-11T21:48:50.960Z,84.17
2018-09-11T21:51:20.958Z,84.32
2018-09-11T21:53:52.169Z,84.30
2018-09-11T21:56:21.381Z,85.23
2018-09-11T21:58:52.470Z,85.09
2018-09-11T22:01:27.146Z,85.27
2018-09-11T22:03:58.601Z,85.07
2018-09-11T22:06:28.150Z,85.03
2018-09-11T22:08:57.415Z,85.59
2018-09-11T22:11:28.770Z,85.67
2018-09-11T22:13:57.961Z,85.14
2018-09-11T22:16:29.217Z,85.65
2018-09-11T22:18:58.447Z,85.83
2018-09-11T22:21:31.934Z,85.25
2018-09-11T22:24:01.439Z,85.68
2018-09-11T22:26:31.116Z,86.01
2018-09-11T22:29:00.553Z,86.10
2018-09-11T22:31:30.301Z,85.50
2018-09-11T22:33:59.523Z,85.84
2018-09-11T22:36:28.998Z,85.81
2018-09-11T22:38:58.211Z,85.59
2018-09-11T22:41:27.839Z,85.96
2018-09-11T22:43:57.003Z,86.32
2018-09-11T22:46:26.680Z,86.90
2018-09-11T22:48:55.897Z,86.94
2018-09-11T22:51:25.421Z,87.05
2018-09-11T22:53:54.578Z,87.47
2018-09-11T22:56:24.185Z,87.72
2018-09-11T22:58:55.162Z,87.18
2018-09-11T23:01:24.708Z,88.01
2018-09-11T23:03:53.917Z,88.35
2018-09-11T23:06:23.573Z,88.39
2018-09-11T23:08:52.781Z,88.43
2018-09-11T23:11:22.313Z,87.80
2018-09-11T23:13:51.526Z,88.34
2018-09-11T23:16:20.695Z,87.94
2018-09-11T23:18:49.883Z,88.46
2018-09-11T23:21:19.359Z,89.00
2018-09-11T23:23:50.289Z,89.27
2018-09-11T23:26:21.451Z,89.27
2018-09-11T23:28:50.651Z,89.07
2018-09-11T23:31:20.274Z,89.12
2018-09-11T23:33:49.501Z,89.14
2018-09-11T23:36:20.996Z,89.43
2018-09-11T23:38:50.142Z,89.12
2018-09-11T23:41:19.719Z,89.41
2018-09-11T23:43:49.149Z,89.34
2018-09-11T23:46:18.707Z,89.76
2018-09-11T23:48:47.864Z,89.41
2018-09-11T23:51:17.429Z,89.67
2018-09-11T23:53:46.587Z,89.50
2018-09-11T23:56:17.880Z,90.29
2018-09-11T23:58:47.177Z,89.59
